sensor_id;sensor_type;location;lat;lon;timestamp;pressure;altitude;pressure_sealevel;temperature;humidity
46690;BME280;32423;45.398;10.874;2023-01-28T00:01:13;100790.38;;;10.79;45.45
46690;BME280;32423;45.398;10.874;2023-01-28T00:04:05;100797.06;;;10.72;44.14
46690;BME280;32423;45.398;10.874;2023-01-28T00:07:00;100797.06;;;10.72;42.76
46690;BME280;32423;45.398;10.874;2023-01-28T00:09:54;100792.91;;;10.66;42.15
46690;BME280;32423;45.398;10.874;2023-01-28T00:12:49;100797.72;;;10.69;44.27
46690;BME280;32423;45.398;10.874;2023-01-28T00:15:43;100794.69;;;10.71;43.15
46690;BME280;32423;45.398;10.874;2023-01-28T00:18:38;100794.31;;;10.64;41.71
46690;BME280;32423;45.398;10.874;2023-01-28T00:21:33;100793.66;;;10.58;41.32
46690;BME280;32423;45.398;10.874;2023-01-28T00:24:27;100789.78;;;10.51;40.89
46690;BME280;32423;45.398;10.874;2023-01-28T00:27:19;100799.06;;;10.50;41.26
46690;BME280;32423;45.398;10.874;2023-01-28T00:30:13;100801.41;;;10.43;40.93
46690;BME280;32423;45.398;10.874;2023-01-28T00:33:08;100801.91;;;10.45;41.68
46690;BME280;32423;45.398;10.874;2023-01-28T00:36:03;100810.19;;;10.40;42.72
46690;BME280;32423;45.398;10.874;2023-01-28T00:38:59;100805.31;;;10.50;41.92
46690;BME280;32423;45.398;10.874;2023-01-28T00:41:50;100811.69;;;10.46;41.73
46690;BME280;32423;45.398;10.874;2023-01-28T00:44:47;100818.06;;;10.41;41.79
46690;BME280;32423;45.398;10.874;2023-01-28T00:47:41;100822.22;;;10.47;41.71
46690;BME280;32423;45.398;10.874;2023-01-28T00:50:36;100811.19;;;10.44;41.90
46690;BME280;32423;45.398;10.874;2023-01-28T00:53:30;100818.81;;;10.42;41.06
46690;BME280;32423;45.398;10.874;2023-01-28T00:56:25;100814.84;;;10.39;42.37
46690;BME280;32423;45.398;10.874;2023-01-28T00:59:19;100816.44;;;10.40;43.70
46690;BME280;32423;45.398;10.874;2023-01-28T01:02:11;100814.97;;;10.34;45.69
46690;BME280;32423;45.398;10.874;2023-01-28T01:05:08;100822.69;;;10.41;44.99
46690;BME280;32423;45.398;10.874;2023-01-28T01:08:00;100820.94;;;10.45;45.47
46690;BME280;32423;45.398;10.874;2023-01-28T01:10:59;100820.31;;;10.48;45.24
46690;BME280;32423;45.398;10.874;2023-01-28T01:13:54;100827.50;;;10.44;44.15
46690;BME280;32423;45.398;10.874;2023-01-28T01:16:49;100828.28;;;10.44;43.89
46690;BME280;32423;45.398;10.874;2023-01-28T01:19:44;100835.13;;;10.42;43.80
46690;BME280;32423;45.398;10.874;2023-01-28T01:22:38;100817.84;;;10.38;43.09
46690;BME280;32423;45.398;10.874;2023-01-28T01:25:33;100818.66;;;10.38;42.74
46690;BME280;32423;45.398;10.874;2023-01-28T01:28:27;100831.94;;;10.40;42.81
46690;BME280;32423;45.398;10.874;2023-01-28T01:31:22;100833.19;;;10.34;42.60
46690;BME280;32423;45.398;10.874;2023-01-28T01:34:14;100826.13;;;10.33;43.87
46690;BME280;32423;45.398;10.874;2023-01-28T01:37:06;100824.09;;;10.38;45.81
46690;BME280;32423;45.398;10.874;2023-01-28T01:40:01;100828.72;;;10.38;45.44
46690;BME280;32423;45.398;10.874;2023-01-28T01:42:55;100830.75;;;10.32;43.16
46690;BME280;32423;45.398;10.874;2023-01-28T01:45:54;100827.56;;;10.30;43.35
46690;BME280;32423;45.398;10.874;2023-01-28T01:48:50;100828.50;;;10.25;43.92
46690;BME280;32423;45.398;10.874;2023-01-28T01:51:43;100825.16;;;10.28;44.17
46690;BME280;32423;45.398;10.874;2023-01-28T01:54:35;100829.34;;;10.35;45.97
46690;BME280;32423;45.398;10.874;2023-01-28T01:57:31;100833.69;;;10.36;44.93
46690;BME280;32423;45.398;10.874;2023-01-28T02:00:25;100828.56;;;10.34;46.04
46690;BME280;32423;45.398;10.874;2023-01-28T02:03:21;100827.75;;;10.34;45.52
46690;BME280;32423;45.398;10.874;2023-01-28T02:06:18;100832.56;;;10.37;46.38
46690;BME280;32423;45.398;10.874;2023-01-28T02:09:31;100838.50;;;10.39;46.33
46690;BME280;32423;45.398;10.874;2023-01-28T02:12:30;100834.16;;;10.38;45.82
46690;BME280;32423;45.398;10.874;2023-01-28T02:15:25;100826.81;;;10.38;45.79
46690;BME280;32423;45.398;10.874;2023-01-28T02:18:18;100832.75;;;10.40;47.83
46690;BME280;32423;45.398;10.874;2023-01-28T02:24:39;100834.28;;;10.55;47.85
46690;BME280;32423;45.398;10.874;2023-01-28T02:30:58;100835.94;;;10.42;46.03
46690;BME280;32423;45.398;10.874;2023-01-28T02:34:04;100839.59;;;10.38;45.53
46690;BME280;32423;45.398;10.874;2023-01-28T02:37:05;100839.00;;;10.41;46.88
46690;BME280;32423;45.398;10.874;2023-01-28T02:40:03;100836.75;;;10.43;46.42
46690;BME280;32423;45.398;10.874;2023-01-28T02:42:59;100837.22;;;10.36;46.48
46690;BME280;32423;45.398;10.874;2023-01-28T02:45:54;100837.81;;;10.33;46.13
46690;BME280;32423;45.398;10.874;2023-01-28T02:49:06;100845.78;;;10.29;44.97
46690;BME280;32423;45.398;10.874;2023-01-28T02:55:14;100843.44;;;10.37;46.53
46690;BME280;32423;45.398;10.874;2023-01-28T02:59:09;100838.63;;;10.34;45.67
46690;BME280;32423;45.398;10.874;2023-01-28T03:01:41;100832.38;;;10.33;45.70
46690;BME280;32423;45.398;10.874;2023-01-28T03:04:40;100834.59;;;10.31;45.58
46690;BME280;32423;45.398;10.874;2023-01-28T03:07:38;100843.88;;;10.30;45.68
46690;BME280;32423;45.398;10.874;2023-01-28T03:10:31;100839.25;;;10.31;45.94
46690;BME280;32423;45.398;10.874;2023-01-28T03:13:25;100832.50;;;10.28;46.35
46690;BME280;32423;45.398;10.874;2023-01-28T03:16:36;100832.56;;;10.37;48.42
46690;BME280;32423;45.398;10.874;2023-01-28T03:19:48;100828.47;;;10.48;49.19
46690;BME280;32423;45.398;10.874;2023-01-28T03:22:57;100825.53;;;10.66;51.11
46690;BME280;32423;45.398;10.874;2023-01-28T03:26:11;100829.72;;;10.72;50.63
46690;BME280;32423;45.398;10.874;2023-01-28T03:29:25;100815.81;;;10.83;52.32
46690;BME280;32423;45.398;10.874;2023-01-28T03:32:39;100814.69;;;10.75;50.70
46690;BME280;32423;45.398;10.874;2023-01-28T03:35:50;100815.00;;;10.73;49.36
46690;BME280;32423;45.398;10.874;2023-01-28T03:39:01;100803.59;;;10.63;47.62
46690;BME280;32423;45.398;10.874;2023-01-28T03:42:09;100806.28;;;10.54;46.21
46690;BME280;32423;45.398;10.874;2023-01-28T03:45:12;100803.06;;;10.52;46.81
46690;BME280;32423;45.398;10.874;2023-01-28T03:48:08;100799.94;;;10.37;45.24
46690;BME280;32423;45.398;10.874;2023-01-28T03:51:02;100791.06;;;10.22;46.00
46690;BME280;32423;45.398;10.874;2023-01-28T03:53:54;100795.91;;;10.25;47.86
46690;BME280;32423;45.398;10.874;2023-01-28T03:56:47;100793.31;;;10.20;46.23
46690;BME280;32423;45.398;10.874;2023-01-28T03:59:39;100795.56;;;10.27;46.02
46690;BME280;32423;45.398;10.874;2023-01-28T04:02:31;100798.09;;;10.46;48.80
46690;BME280;32423;45.398;10.874;2023-01-28T04:05:23;100810.28;;;10.57;49.49
46690;BME280;32423;45.398;10.874;2023-01-28T04:08:16;100813.31;;;10.55;49.44
46690;BME280;32423;45.398;10.874;2023-01-28T04:11:17;100810.75;;;10.50;48.54
46690;BME280;32423;45.398;10.874;2023-01-28T04:14:09;100803.38;;;10.51;48.05
46690;BME280;32423;45.398;10.874;2023-01-28T04:17:07;100816.47;;;10.49;48.00
46690;BME280;32423;45.398;10.874;2023-01-28T04:19:59;100819.47;;;10.39;45.17
46690;BME280;32423;45.398;10.874;2023-01-28T04:22:51;100829.50;;;10.29;43.08
46690;BME280;32423;45.398;10.874;2023-01-28T04:25:43;100836.16;;;10.23;43.56
46690;BME280;32423;45.398;10.874;2023-01-28T04:28:36;100834.84;;;10.21;42.42
46690;BME280;32423;45.398;10.874;2023-01-28T04:31:28;100839.59;;;10.15;43.18
46690;BME280;32423;45.398;10.874;2023-01-28T04:34:37;100835.78;;;10.16;42.60
46690;BME280;32423;45.398;10.874;2023-01-28T04:37:42;100848.56;;;10.16;43.28
46690;BME280;32423;45.398;10.874;2023-01-28T04:41:00;100856.91;;;10.06;42.70
46690;BME280;32423;45.398;10.874;2023-01-28T04:43:53;100860.09;;;9.99;42.69
46690;BME280;32423;45.398;10.874;2023-01-28T04:46:55;100854.94;;;9.98;41.85
46690;BME280;32423;45.398;10.874;2023-01-28T04:50:05;100857.59;;;9.89;41.81
46690;BME280;32423;45.398;10.874;2023-01-28T04:53:04;100860.13;;;9.85;42.00
46690;BME280;32423;45.398;10.874;2023-01-28T04:56:07;100856.50;;;9.90;42.33
46690;BME280;32423;45.398;10.874;2023-01-28T04:58:59;100871.38;;;9.93;43.57
46690;BME280;32423;45.398;10.874;2023-01-28T05:01:52;100874.09;;;9.93;43.50
46690;BME280;32423;45.398;10.874;2023-01-28T05:04:44;100874.38;;;9.91;43.11
46690;BME280;32423;45.398;10.874;2023-01-28T05:07:51;100876.75;;;9.84;43.86
46690;BME280;32423;45.398;10.874;2023-01-28T05:10:44;100882.47;;;9.82;46.04
46690;BME280;32423;45.398;10.874;2023-01-28T05:13:36;100881.78;;;9.77;45.30
46690;BME280;32423;45.398;10.874;2023-01-28T05:16:28;100876.56;;;9.67;44.05
46690;BME280;32423;45.398;10.874;2023-01-28T05:19:20;100876.56;;;9.67;44.34
46690;BME280;32423;45.398;10.874;2023-01-28T05:22:12;100882.91;;;9.62;43.42
46690;BME280;32423;45.398;10.874;2023-01-28T05:25:03;100885.41;;;9.72;44.51
46690;BME280;32423;45.398;10.874;2023-01-28T05:27:55;100883.91;;;9.66;43.17
46690;BME280;32423;45.398;10.874;2023-01-28T05:30:47;100891.56;;;9.51;42.50
46690;BME280;32423;45.398;10.874;2023-01-28T05:33:39;100897.81;;;9.51;42.67
46690;BME280;32423;45.398;10.874;2023-01-28T05:36:31;100896.28;;;9.45;42.44
46690;BME280;32423;45.398;10.874;2023-01-28T05:39:26;100893.38;;;9.41;43.21
46690;BME280;32423;45.398;10.874;2023-01-28T05:42:18;100897.22;;;9.54;45.91
46690;BME280;32423;45.398;10.874;2023-01-28T05:45:11;100885.44;;;9.45;44.73
46690;BME280;32423;45.398;10.874;2023-01-28T05:48:19;100893.28;;;9.47;43.75
46690;BME280;32423;45.398;10.874;2023-01-28T05:51:47;100896.41;;;9.54;43.96
46690;BME280;32423;45.398;10.874;2023-01-28T05:54:39;100903.75;;;9.53;44.24
46690;BME280;32423;45.398;10.874;2023-01-28T05:57:29;100916.50;;;9.53;44.17
46690;BME280;32423;45.398;10.874;2023-01-28T06:00:21;100905.25;;;9.45;44.39
46690;BME280;32423;45.398;10.874;2023-01-28T06:03:13;100918.91;;;9.40;44.20
46690;BME280;32423;45.398;10.874;2023-01-28T06:06:04;100923.34;;;9.36;44.20
46690;BME280;32423;45.398;10.874;2023-01-28T06:08:55;100934.00;;;9.33;44.16
46690;BME280;32423;45.398;10.874;2023-01-28T06:11:50;100931.50;;;9.36;44.27
46690;BME280;32423;45.398;10.874;2023-01-28T06:14:42;100936.63;;;9.38;44.71
46690;BME280;32423;45.398;10.874;2023-01-28T06:17:52;100937.81;;;9.32;44.16
46690;BME280;32423;45.398;10.874;2023-01-28T06:20:47;100950.88;;;9.30;45.31
46690;BME280;32423;45.398;10.874;2023-01-28T06:23:37;100950.59;;;9.31;46.01
46690;BME280;32423;45.398;10.874;2023-01-28T06:26:28;100951.69;;;9.30;47.08
46690;BME280;32423;45.398;10.874;2023-01-28T06:29:20;100953.31;;;9.31;46.73
46690;BME280;32423;45.398;10.874;2023-01-28T06:32:12;100950.88;;;9.30;46.48
46690;BME280;32423;45.398;10.874;2023-01-28T06:35:04;100955.41;;;9.21;45.67
46690;BME280;32423;45.398;10.874;2023-01-28T06:37:56;100955.31;;;9.26;45.81
46690;BME280;32423;45.398;10.874;2023-01-28T06:40:52;100960.00;;;9.20;44.81
46690;BME280;32423;45.398;10.874;2023-01-28T06:43:44;100967.56;;;9.23;46.76
46690;BME280;32423;45.398;10.874;2023-01-28T06:46:36;100978.81;;;9.30;45.79
46690;BME280;32423;45.398;10.874;2023-01-28T06:49:28;100978.44;;;9.23;44.72
46690;BME280;32423;45.398;10.874;2023-01-28T06:52:17;100973.91;;;9.32;50.09
46690;BME280;32423;45.398;10.874;2023-01-28T06:55:09;100977.03;;;9.39;51.71
46690;BME280;32423;45.398;10.874;2023-01-28T06:58:01;100982.47;;;9.39;49.90
46690;BME280;32423;45.398;10.874;2023-01-28T07:00:51;100980.63;;;9.21;45.78
46690;BME280;32423;45.398;10.874;2023-01-28T07:03:43;100981.06;;;9.28;48.27
46690;BME280;32423;45.398;10.874;2023-01-28T07:06:35;100986.06;;;9.21;46.30
46690;BME280;32423;45.398;10.874;2023-01-28T07:09:27;100985.56;;;9.19;46.70
46690;BME280;32423;45.398;10.874;2023-01-28T07:12:19;100985.66;;;9.14;46.28
46690;BME280;32423;45.398;10.874;2023-01-28T07:15:11;100989.69;;;9.30;48.82
46690;BME280;32423;45.398;10.874;2023-01-28T07:18:03;100989.88;;;9.20;47.25
46690;BME280;32423;45.398;10.874;2023-01-28T07:20:55;100999.81;;;9.11;46.66
46690;BME280;32423;45.398;10.874;2023-01-28T07:23:47;100998.69;;;9.12;46.35
46690;BME280;32423;45.398;10.874;2023-01-28T07:26:39;100986.03;;;9.08;45.85
46690;BME280;32423;45.398;10.874;2023-01-28T07:29:31;100994.47;;;9.06;46.60
46690;BME280;32423;45.398;10.874;2023-01-28T07:32:23;100985.50;;;9.06;46.81
46690;BME280;32423;45.398;10.874;2023-01-28T07:35:15;100995.66;;;9.00;46.36
46690;BME280;32423;45.398;10.874;2023-01-28T07:38:07;100998.34;;;9.00;47.39
46690;BME280;32423;45.398;10.874;2023-01-28T07:40:57;100997.63;;;8.94;47.39
46690;BME280;32423;45.398;10.874;2023-01-28T07:43:49;101006.09;;;8.93;48.47
46690;BME280;32423;45.398;10.874;2023-01-28T07:46:38;101002.78;;;8.96;47.85
46690;BME280;32423;45.398;10.874;2023-01-28T07:49:30;101009.91;;;8.92;47.69
46690;BME280;32423;45.398;10.874;2023-01-28T07:52:19;101017.31;;;8.86;46.46
46690;BME280;32423;45.398;10.874;2023-01-28T07:55:11;101017.41;;;8.81;48.30
46690;BME280;32423;45.398;10.874;2023-01-28T07:58:03;101025.56;;;8.95;52.54
46690;BME280;32423;45.398;10.874;2023-01-28T08:00:59;101028.72;;;9.02;52.68
46690;BME280;32423;45.398;10.874;2023-01-28T08:03:50;101021.25;;;8.94;50.13
46690;BME280;32423;45.398;10.874;2023-01-28T08:06:42;101026.16;;;8.92;49.97
46690;BME280;32423;45.398;10.874;2023-01-28T08:09:34;101039.22;;;8.90;48.74
46690;BME280;32423;45.398;10.874;2023-01-28T08:12:26;101042.00;;;8.85;47.13
46690;BME280;32423;45.398;10.874;2023-01-28T08:15:18;101051.47;;;8.87;47.18
46690;BME280;32423;45.398;10.874;2023-01-28T08:18:08;101053.44;;;8.82;46.36
46690;BME280;32423;45.398;10.874;2023-01-28T08:21:01;101055.06;;;8.83;48.40
46690;BME280;32423;45.398;10.874;2023-01-28T08:23:53;101059.88;;;8.86;50.37
46690;BME280;32423;45.398;10.874;2023-01-28T08:26:43;101060.41;;;8.88;50.11
46690;BME280;32423;45.398;10.874;2023-01-28T08:29:35;101064.50;;;8.85;49.69
46690;BME280;32423;45.398;10.874;2023-01-28T08:32:27;101071.25;;;8.88;50.77
46690;BME280;32423;45.398;10.874;2023-01-28T08:35:19;101074.25;;;8.86;49.77
46690;BME280;32423;45.398;10.874;2023-01-28T08:38:11;101080.50;;;8.87;51.86
46690;BME280;32423;45.398;10.874;2023-01-28T08:41:03;101089.44;;;8.87;49.42
46690;BME280;32423;45.398;10.874;2023-01-28T08:43:55;101086.41;;;8.89;50.11
46690;BME280;32423;45.398;10.874;2023-01-28T08:46:47;101091.53;;;8.90;50.73
46690;BME280;32423;45.398;10.874;2023-01-28T08:49:36;101087.22;;;8.89;49.84
46690;BME280;32423;45.398;10.874;2023-01-28T08:52:26;101095.94;;;8.86;48.34
46690;BME280;32423;45.398;10.874;2023-01-28T08:55:15;101103.50;;;8.89;48.44
46690;BME280;32423;45.398;10.874;2023-01-28T08:58:08;101099.75;;;8.85;46.49
46690;BME280;32423;45.398;10.874;2023-01-28T09:01:02;101108.69;;;8.86;45.81
46690;BME280;32423;45.398;10.874;2023-01-28T09:03:52;101107.09;;;8.85;46.51
46690;BME280;32423;45.398;10.874;2023-01-28T09:06:39;101102.47;;;8.85;46.35
46690;BME280;32423;45.398;10.874;2023-01-28T09:09:31;101113.59;;;8.84;47.30
46690;BME280;32423;45.398;10.874;2023-01-28T09:12:23;101113.09;;;8.82;46.72
46690;BME280;32423;45.398;10.874;2023-01-28T09:15:15;101121.25;;;8.82;46.60
46690;BME280;32423;45.398;10.874;2023-01-28T09:18:08;101129.31;;;8.87;46.87
46690;BME280;32423;45.398;10.874;2023-01-28T09:21:02;101126.00;;;8.90;48.75
46690;BME280;32423;45.398;10.874;2023-01-28T09:23:55;101120.56;;;8.90;48.34
46690;BME280;32423;45.398;10.874;2023-01-28T09:26:46;101127.16;;;8.84;47.10
46690;BME280;32423;45.398;10.874;2023-01-28T09:29:38;101134.06;;;8.95;49.50
46690;BME280;32423;45.398;10.874;2023-01-28T09:32:30;101137.16;;;8.88;47.46
46690;BME280;32423;45.398;10.874;2023-01-28T09:35:20;101137.09;;;8.93;49.17
46690;BME280;32423;45.398;10.874;2023-01-28T09:38:13;101134.81;;;8.82;46.13
46690;BME280;32423;45.398;10.874;2023-01-28T09:47:15;101138.00;;;8.84;46.69
46690;BME280;32423;45.398;10.874;2023-01-28T09:50:13;101145.66;;;8.82;46.50
46690;BME280;32423;45.398;10.874;2023-01-28T09:53:07;101151.00;;;8.87;46.05
46690;BME280;32423;45.398;10.874;2023-01-28T09:56:02;101150.47;;;8.85;46.15
46690;BME280;32423;45.398;10.874;2023-01-28T09:58:55;101146.38;;;8.87;47.17
46690;BME280;32423;45.398;10.874;2023-01-28T10:01:59;101146.13;;;8.84;46.27
46690;BME280;32423;45.398;10.874;2023-01-28T10:08:26;101151.06;;;8.82;45.80
46690;BME280;32423;45.398;10.874;2023-01-28T10:11:13;101151.00;;;8.87;46.04
46690;BME280;32423;45.398;10.874;2023-01-28T10:17:25;101153.56;;;8.78;45.63
46690;BME280;32423;45.398;10.874;2023-01-28T10:20:25;101146.94;;;8.84;45.85
46690;BME280;32423;45.398;10.874;2023-01-28T10:23:27;101142.19;;;8.76;45.93
46690;BME280;32423;45.398;10.874;2023-01-28T10:26:22;101150.47;;;8.85;45.86
46690;BME280;32423;45.398;10.874;2023-01-28T10:29:19;101139.63;;;8.85;46.07
46690;BME280;32423;45.398;10.874;2023-01-28T10:32:24;101139.56;;;8.90;46.00
46690;BME280;32423;45.398;10.874;2023-01-28T10:35:13;101142.50;;;8.93;46.44
46690;BME280;32423;45.398;10.874;2023-01-28T10:38:04;101137.09;;;8.93;46.23
46690;BME280;32423;45.398;10.874;2023-01-28T10:40:57;101138.66;;;8.94;46.41
46690;BME280;32423;45.398;10.874;2023-01-28T10:43:48;101132.88;;;9.01;47.02
46690;BME280;32423;45.398;10.874;2023-01-28T10:46:40;101134.28;;;8.98;46.41
46690;BME280;32423;45.398;10.874;2023-01-28T10:49:30;101130.97;;;9.01;46.65
46690;BME280;32423;45.398;10.874;2023-01-28T10:52:22;101127.16;;;9.02;45.80
46690;BME280;32423;45.398;10.874;2023-01-28T10:55:14;101117.38;;;9.20;51.61
46690;BME280;32423;45.398;10.874;2023-01-28T10:58:04;101112.56;;;9.17;49.31
46690;BME280;32423;45.398;10.874;2023-01-28T11:01:03;101110.50;;;9.28;52.14
46690;BME280;32423;45.398;10.874;2023-01-28T11:03:56;101110.19;;;9.29;51.01
46690;BME280;32423;45.398;10.874;2023-01-28T11:09:47;101097.59;;;9.20;47.62
46690;BME280;32423;45.398;10.874;2023-01-28T11:12:40;101097.22;;;9.26;47.90
46690;BME280;32423;45.398;10.874;2023-01-28T11:15:30;101096.94;;;9.41;51.49
46690;BME280;32423;45.398;10.874;2023-01-28T11:18:20;101098.28;;;9.44;52.00
46690;BME280;32423;45.398;10.874;2023-01-28T11:21:15;101095.75;;;9.48;51.24
46690;BME280;32423;45.398;10.874;2023-01-28T11:24:13;101092.75;;;9.49;49.93
46690;BME280;32423;45.398;10.874;2023-01-28T11:27:08;101098.09;;;9.54;49.23
46690;BME280;32423;45.398;10.874;2023-01-28T11:30:02;101082.00;;;9.58;50.25
46690;BME280;32423;45.398;10.874;2023-01-28T11:32:56;101081.31;;;9.66;51.66
46690;BME280;32423;45.398;10.874;2023-01-28T11:35:55;101066.53;;;9.72;51.56
46690;BME280;32423;45.398;10.874;2023-01-28T11:38:56;101071.69;;;9.73;50.73
46690;BME280;32423;45.398;10.874;2023-01-28T11:41:48;101070.34;;;9.71;49.42
46690;BME280;32423;45.398;10.874;2023-01-28T11:44:37;101062.34;;;9.79;49.77
46690;BME280;32423;45.398;10.874;2023-01-28T11:47:48;101049.56;;;9.80;50.12
46690;BME280;32423;45.398;10.874;2023-01-28T11:50:42;101049.47;;;9.85;47.46
46690;BME280;32423;45.398;10.874;2023-01-28T11:57:02;101038.53;;;9.30;40.45
46690;BME280;32423;45.398;10.874;2023-01-28T12:00:08;101030.09;;;9.45;40.35
46690;BME280;32423;45.398;10.874;2023-01-28T12:06:52;101034.44;;;9.47;38.33
46690;BME280;32423;45.398;10.874;2023-01-28T12:10:08;101023.56;;;9.33;36.77
46690;BME280;32423;45.398;10.874;2023-01-28T12:19:35;101017.84;;;9.62;39.46
46690;BME280;32423;45.398;10.874;2023-01-28T12:26:17;101003.38;;;9.53;36.12
46690;BME280;32423;45.398;10.874;2023-01-28T12:30:05;101004.56;;;9.47;35.27
46690;BME280;32423;45.398;10.874;2023-01-28T12:45:33;101006.16;;;10.52;35.94
46690;BME280;32423;45.398;10.874;2023-01-28T12:48:44;101011.19;;;10.36;35.12
46690;BME280;32423;45.398;10.874;2023-01-28T12:55:34;101004.25;;;10.52;34.87
46690;BME280;32423;45.398;10.874;2023-01-28T12:58:33;101011.41;;;9.99;34.76
46690;BME280;32423;45.398;10.874;2023-01-28T13:01:37;101008.78;;;10.21;35.30
46690;BME280;32423;45.398;10.874;2023-01-28T13:04:51;101000.25;;;10.50;34.38
46690;BME280;32423;45.398;10.874;2023-01-28T13:07:54;100992.94;;;10.37;36.04
46690;BME280;32423;45.398;10.874;2023-01-28T13:10:46;100991.28;;;10.49;35.04
46690;BME280;32423;45.398;10.874;2023-01-28T13:13:37;100996.88;;;13.19;33.05
46690;BME280;32423;45.398;10.874;2023-01-28T13:16:27;101002.63;;;20.30;22.44
46690;BME280;32423;45.398;10.874;2023-01-28T13:19:21;101004.66;;;19.81;22.58
46690;BME280;32423;45.398;10.874;2023-01-28T13:22:22;101002.78;;;18.78;23.11
46690;BME280;32423;45.398;10.874;2023-01-28T13:25:31;101012.38;;;18.49;22.25
46690;BME280;32423;45.398;10.874;2023-01-28T13:28:29;101015.94;;;18.15;23.50
46690;BME280;32423;45.398;10.874;2023-01-28T13:31:21;101024.47;;;21.02;20.58
46690;BME280;32423;45.398;10.874;2023-01-28T13:34:25;101023.13;;;22.90;18.11
46690;BME280;32423;45.398;10.874;2023-01-28T13:37:38;101020.78;;;25.31;16.48
46690;BME280;32423;45.398;10.874;2023-01-28T13:40:31;101023.56;;;21.68;20.02
46690;BME280;32423;45.398;10.874;2023-01-28T13:43:37;101022.78;;;19.36;22.74
46690;BME280;32423;45.398;10.874;2023-01-28T13:46:28;101020.06;;;18.40;22.40
46690;BME280;32423;45.398;10.874;2023-01-28T13:49:31;101028.53;;;19.70;20.82
46690;BME280;32423;45.398;10.874;2023-01-28T13:52:27;101032.81;;;21.43;19.10
46690;BME280;32423;45.398;10.874;2023-01-28T13:55:23;101028.69;;;19.57;22.01
46690;BME280;32423;45.398;10.874;2023-01-28T14:01:55;101024.56;;;14.64;28.16
46690;BME280;32423;45.398;10.874;2023-01-28T14:18:17;101038.84;;;11.80;32.75
46690;BME280;32423;45.398;10.874;2023-01-28T14:21:16;101038.41;;;11.65;33.03
46690;BME280;32423;45.398;10.874;2023-01-28T14:24:14;101044.06;;;11.68;32.40
46690;BME280;32423;45.398;10.874;2023-01-28T14:30:24;101053.25;;;13.23;30.81
46690;BME280;32423;45.398;10.874;2023-01-28T14:33:20;101055.34;;;17.25;25.57
46690;BME280;32423;45.398;10.874;2023-01-28T14:36:13;101050.09;;;19.22;23.42
46690;BME280;32423;45.398;10.874;2023-01-28T14:39:03;101049.75;;;18.85;23.38
46690;BME280;32423;45.398;10.874;2023-01-28T14:41:57;101053.81;;;19.10;21.93
46690;BME280;32423;45.398;10.874;2023-01-28T14:48:19;101067.59;;;20.21;20.93
46690;BME280;32423;45.398;10.874;2023-01-28T14:54:39;101068.56;;;17.35;23.38
46690;BME280;32423;45.398;10.874;2023-01-28T14:57:54;101071.09;;;14.43;26.55
46690;BME280;32423;45.398;10.874;2023-01-28T15:00:55;101075.44;;;13.05;28.52
46690;BME280;32423;45.398;10.874;2023-01-28T15:03:50;101078.28;;;11.83;30.91
46690;BME280;32423;45.398;10.874;2023-01-28T15:06:39;101081.22;;;11.11;33.13
46690;BME280;32423;45.398;10.874;2023-01-28T15:09:29;101065.31;;;11.04;33.98
46690;BME280;32423;45.398;10.874;2023-01-28T15:12:18;101085.88;;;10.39;35.63
46690;BME280;32423;45.398;10.874;2023-01-28T15:15:32;101076.00;;;10.29;37.26
46690;BME280;32423;45.398;10.874;2023-01-28T15:18:36;101078.63;;;9.79;38.70
46690;BME280;32423;45.398;10.874;2023-01-28T15:21:32;101077.63;;;9.89;38.86
46690;BME280;32423;45.398;10.874;2023-01-28T15:24:26;101078.66;;;10.20;38.09
46690;BME280;32423;45.398;10.874;2023-01-28T15:27:24;101083.81;;;11.16;36.33
46690;BME280;32423;45.398;10.874;2023-01-28T15:30:29;101075.03;;;10.97;36.79
46690;BME280;32423;45.398;10.874;2023-01-28T15:33:23;101081.66;;;10.19;38.12
46690;BME280;32423;45.398;10.874;2023-01-28T15:36:15;101087.97;;;10.14;38.85
46690;BME280;32423;45.398;10.874;2023-01-28T15:39:16;101094.06;;;9.52;39.66
46690;BME280;32423;45.398;10.874;2023-01-28T15:42:13;101096.53;;;9.02;41.17
46690;BME280;32423;45.398;10.874;2023-01-28T15:45:04;101094.78;;;8.74;41.79
46690;BME280;32423;45.398;10.874;2023-01-28T15:48:07;101100.13;;;8.41;42.94
46690;BME280;32423;45.398;10.874;2023-01-28T15:51:20;101104.03;;;8.06;43.53
46690;BME280;32423;45.398;10.874;2023-01-28T15:54:10;101109.34;;;8.16;43.64
46690;BME280;32423;45.398;10.874;2023-01-28T15:57:12;101113.78;;;8.07;44.19
46690;BME280;32423;45.398;10.874;2023-01-28T16:03:09;101111.25;;;7.63;44.82
46690;BME280;32423;45.398;10.874;2023-01-28T16:06:11;101112.03;;;7.40;45.33
46690;BME280;32423;45.398;10.874;2023-01-28T16:09:12;101122.81;;;7.45;45.52
46690;BME280;32423;45.398;10.874;2023-01-28T16:12:09;101122.09;;;7.35;45.08
46690;BME280;32423;45.398;10.874;2023-01-28T16:15:04;101127.50;;;7.01;45.96
46690;BME280;32423;45.398;10.874;2023-01-28T16:17:54;101127.84;;;7.23;45.68
46690;BME280;32423;45.398;10.874;2023-01-28T16:20:41;101128.25;;;7.40;45.22
46690;BME280;32423;45.398;10.874;2023-01-28T16:23:33;101125.50;;;7.45;44.83
46690;BME280;32423;45.398;10.874;2023-01-28T16:26:23;101138.59;;;7.33;45.05
46690;BME280;32423;45.398;10.874;2023-01-28T16:29:14;101135.34;;;7.36;44.99
46690;BME280;32423;45.398;10.874;2023-01-28T16:32:23;101140.03;;;7.25;45.17
46690;BME280;32423;45.398;10.874;2023-01-28T16:38:06;101146.16;;;7.36;44.77
46690;BME280;32423;45.398;10.874;2023-01-28T16:40:55;101149.13;;;7.01;48.04
46690;BME280;32423;45.398;10.874;2023-01-28T16:43:45;101155.75;;;6.79;48.48
46690;BME280;32423;45.398;10.874;2023-01-28T16:46:32;101151.97;;;6.80;48.65